Time;durP1;ratioP1;P1;durP2;ratioP2;P2;SDS_P1;SDS_P2;PMS_P1;PMS_P2;Temp;Humidity;BMP_temperature;BMP_pressure;BME280_temperature;BME280_humidity;BME280_pressure;Samples;Min_cycle;Max_cycle;Signal;HPM_P1;HPM_P2
2023/09/11 00:00:27;;;;;;;0.77;0.30;;;;;;;19.24;63.08;95574.50;5074478;28;20975;-57
2023/09/11 00:02:55;;;;;;;0.60;0.40;;;;;;;19.22;63.60;95571.34;5074293;28;20440;-57
2023/09/11 00:05:24;;;;;;;0.50;0.40;;;;;;;19.10;64.57;95579.25;5073611;28;20969;-57
2023/09/11 00:07:52;;;;;;;0.50;0.30;;;;;;;19.11;64.13;95570.06;5073707;28;20437;-58
2023/09/11 00:10:21;;;;;;;17.07;0.47;;;;;;;19.20;64.57;95582.38;5073653;28;20770;-57
2023/09/11 00:12:49;;;;;;;0.53;0.40;;;;;;;19.01;65.25;95571.19;5073344;28;20472;-57
2023/09/11 00:15:17;;;;;;;0.67;0.53;;;;;;;19.14;64.07;95580.19;5073762;28;20465;-57
2023/09/11 00:17:47;;;;;;;0.40;0.30;;;;;;;19.17;64.58;95574.19;5073180;28;20471;-58
2023/09/11 00:20:16;;;;;;;0.40;0.30;;;;;;;19.11;65.13;95580.81;5073466;28;20445;-57
2023/09/11 00:22:44;;;;;;;0.93;0.40;;;;;;;18.82;67.00;95566.09;5073206;28;20480;-58
2023/09/11 00:25:13;;;;;;;0.70;0.47;;;;;;;18.47;68.24;95577.88;5073190;28;20440;-57
2023/09/11 00:27:41;;;;;;;0.93;0.70;;;;;;;18.38;68.04;95575.16;5074461;28;20468;-58
2023/09/11 00:30:10;;;;;;;0.93;0.83;;;;;;;18.11;69.33;95526.31;5073846;28;20430;-58
2023/09/11 00:32:38;;;;;;;0.50;0.50;;;;;;;18.49;69.04;95567.66;5074395;28;20475;-59
2023/09/11 00:35:09;;;;;;;0.70;0.40;;;;;;;18.79;69.30;95574.00;5073678;28;20441;-58
2023/09/11 00:37:37;;;;;;;0.80;0.80;;;;;;;17.77;69.04;95433.94;5074058;28;20429;-58
2023/09/11 00:40:07;;;;;;;0.60;0.50;;;;;;;18.38;69.42;95587.78;5073810;28;20528;-58
2023/09/11 00:42:35;;;;;;;4.43;0.40;;;;;;;18.96;70.85;95574.81;5073949;28;20487;-58
2023/09/11 00:45:05;;;;;;;1.37;0.60;;;;;;;18.92;68.28;95579.22;5073670;28;20968;-59
2023/09/11 00:47:32;;;;;;;0.70;0.70;;;;;;;19.18;67.37;95578.44;5073685;28;20532;-59
2023/09/11 00:50:01;;;;;;;0.50;0.40;;;;;;;19.33;66.53;95578.75;5072877;28;20465;-59
2023/09/11 00:52:31;;;;;;;0.60;0.40;;;;;;;19.22;66.49;95574.03;5073315;28;20441;-59
2023/09/11 00:55:00;;;;;;;0.63;0.63;;;;;;;19.30;66.31;95567.88;5072843;28;20494;-59
2023/09/11 00:57:29;;;;;;;0.40;0.30;;;;;;;18.88;68.44;95529.94;5073389;28;20854;-59
2023/09/11 00:59:57;;;;;;;0.50;0.40;;;;;;;18.99;67.54;95568.03;5072715;28;20449;-59
2023/09/11 01:02:26;;;;;;;0.40;0.30;;;;;;;19.12;66.01;95552.84;5071989;28;20582;-58
2023/09/11 01:04:54;;;;;;;0.50;0.30;;;;;;;18.81;67.63;95567.22;5047509;28;20525;-59
2023/09/11 01:07:22;;;;;;;0.40;0.30;;;;;;;18.70;67.06;95559.78;5073585;28;20941;-58
2023/09/11 01:09:52;;;;;;;1.27;0.90;;;;;;;18.97;66.37;95560.25;5073679;28;20789;-58
2023/09/11 01:12:21;;;;;;;0.50;0.47;;;;;;;18.66;68.25;95564.19;5072979;28;20491;-58
2023/09/11 01:14:49;;;;;;;0.40;0.20;;;;;;;18.87;66.50;95559.81;5073437;28;20850;-58
2023/09/11 01:17:33;;;;;;;0.50;0.30;;;;;;;18.96;66.59;95563.28;5059539;28;20505;-58
2023/09/11 01:20:35;;;;;;;0.50;0.30;;;;;;;18.94;66.76;95557.44;5072864;28;20519;-58
2023/09/11 01:23:33;;;;;;;0.90;0.40;;;;;;;19.17;68.64;95558.06;5053724;28;20444;-58
2023/09/11 01:26:26;;;;;;;0.80;0.80;;;;;;;18.55;69.25;95558.34;5072963;28;20524;-58
2023/09/11 01:29:07;;;;;;;0.97;0.40;;;;;;;18.54;69.59;95558.66;5072264;28;21018;-57
2023/09/11 01:31:37;;;;;;;0.50;0.30;;;;;;;18.65;68.58;95552.66;5072722;28;21001;-57
2023/09/11 01:34:06;;;;;;;0.60;0.60;;;;;;;18.31;71.84;95556.06;5072801;28;20441;-57
2023/09/11 01:36:35;;;;;;;0.50;0.30;;;;;;;18.35;72.76;95556.22;5072476;28;20481;-56
2023/09/11 01:39:04;;;;;;;0.47;0.27;;;;;;;18.30;73.14;95559.03;5072612;28;20972;-57
2023/09/11 01:41:36;;;;;;;0.40;0.30;;;;;;;18.39;72.19;95554.50;5072586;28;20496;-56
2023/09/11 01:44:17;;;;;;;0.40;0.30;;;;;;;18.67;70.11;95555.81;5072792;28;20512;-57
2023/09/11 01:46:47;;;;;;;0.50;0.30;;;;;;;18.07;72.06;95509.25;5071842;28;20448;-56
2023/09/11 01:49:17;;;;;;;0.40;0.30;;;;;;;17.68;72.36;95438.47;5072424;28;20437;-57
2023/09/11 01:51:46;;;;;;;0.57;0.40;;;;;;;18.32;70.76;95528.09;5046138;28;20938;-57
2023/09/11 01:54:16;;;;;;;0.50;0.40;;;;;;;18.46;71.62;95554.03;5072324;28;20799;-57
2023/09/11 01:56:45;;;;;;;0.60;0.40;;;;;;;18.28;71.57;95555.88;5046612;28;20945;-56
2023/09/11 01:59:15;;;;;;;0.53;0.33;;;;;;;18.47;70.80;95553.72;5072396;28;20445;-56
2023/09/11 02:01:45;;;;;;;0.53;0.50;;;;;;;18.42;70.93;95543.91;5064032;28;20500;-56
2023/09/11 02:04:13;;;;;;;0.50;0.30;;;;;;;18.50;70.43;95550.44;5067337;28;20914;-56
2023/09/11 02:06:40;;;;;;;1.23;0.30;;;;;;;18.69;69.92;95550.16;5072505;28;20468;-57
2023/09/11 02:09:09;;;;;;;0.60;0.40;;;;;;;18.46;72.23;95546.78;5071413;28;20442;-57
2023/09/11 02:11:37;;;;;;;0.60;0.40;;;;;;;18.29;73.40;95546.72;5071926;28;20452;-56
2023/09/11 02:14:05;;;;;;;0.50;0.40;;;;;;;18.10;73.73;95552.34;5071724;28;20437;-56
2023/09/11 02:16:36;;;;;;;0.87;0.87;;;;;;;18.01;74.98;95556.09;5072267;28;20609;-56
2023/09/11 02:19:05;;;;;;;0.40;0.30;;;;;;;18.24;74.19;95550.31;5071844;28;20437;-57
2023/09/11 02:21:33;;;;;;;0.70;0.40;;;;;;;18.21;74.86;95558.22;5072268;28;20433;-57
2023/09/11 02:24:04;;;;;;;0.50;0.40;;;;;;;18.65;71.47;95541.13;5072205;28;20463;-57
2023/09/11 02:26:32;;;;;;;0.40;0.30;;;;;;;18.49;72.61;95540.00;5072292;28;20473;-56
2023/09/11 02:29:00;;;;;;;0.50;0.30;;;;;;;18.42;73.49;95545.03;5071730;28;20438;-57
2023/09/11 02:31:29;;;;;;;0.40;0.30;;;;;;;18.35;73.32;95550.84;5071630;28;20447;-56
2023/09/11 02:33:58;;;;;;;0.40;0.30;;;;;;;18.17;73.92;95551.88;5072182;28;20524;-57
2023/09/11 02:36:27;;;;;;;0.50;0.30;;;;;;;18.08;74.41;95549.19;5071839;28;20477;-56
2023/09/11 02:38:55;;;;;;;0.70;0.30;;;;;;;18.13;74.32;95545.56;5071597;28;20429;-56
2023/09/11 02:41:23;;;;;;;0.40;0.20;;;;;;;18.26;72.93;95555.41;5071392;28;20455;-56
2023/09/11 02:43:52;;;;;;;0.70;0.60;;;;;;;18.39;72.20;95552.56;5071414;28;20517;-56
2023/09/11 02:46:20;;;;;;;0.63;0.40;;;;;;;18.44;72.61;95557.03;5070867;28;20441;-56
2023/09/11 02:48:49;;;;;;;1.17;0.40;;;;;;;18.48;72.74;95555.31;5071269;28;21017;-56
2023/09/11 02:51:19;;;;;;;0.50;0.30;;;;;;;18.34;73.03;95543.91;5070652;28;20469;-56
2023/09/11 02:53:47;;;;;;;0.40;0.27;;;;;;;17.97;74.15;95507.66;5071397;28;20528;-56
2023/09/11 02:56:16;;;;;;;1.90;0.90;;;;;;;18.17;74.59;95546.53;5071037;28;20937;-56
2023/09/11 02:58:44;;;;;;;0.50;0.43;;;;;;;17.66;77.22;95547.91;5071226;28;20441;-56
2023/09/11 03:01:13;;;;;;;0.40;0.30;;;;;;;17.41;79.63;95551.19;5070570;28;20451;-56
2023/09/11 03:03:43;;;;;;;0.60;0.40;;;;;;;17.86;76.24;95545.78;5071474;28;20894;-57
2023/09/11 03:06:12;;;;;;;0.50;0.30;;;;;;;17.45;76.96;95505.81;5070655;28;20441;-56
2023/09/11 03:08:42;;;;;;;0.50;0.40;;;;;;;17.63;77.77;95551.19;5071223;28;20434;-56
2023/09/11 03:11:11;;;;;;;0.73;0.73;;;;;;;17.76;76.97;95555.66;5070587;28;20445;-56
2023/09/11 03:13:39;;;;;;;0.40;0.30;;;;;;;17.91;75.37;95548.34;5071058;28;20449;-56
2023/09/11 03:16:12;;;;;;;0.40;0.30;;;;;;;18.02;74.65;95555.00;5070959;28;20450;-56
2023/09/11 03:18:41;;;;;;;0.40;0.30;;;;;;;17.98;74.23;95552.16;5070874;28;20480;-56
2023/09/11 03:21:10;;;;;;;0.40;0.30;;;;;;;17.96;75.39;95561.59;5065689;28;20450;-56
2023/09/11 03:23:38;;;;;;;1.03;0.33;;;;;;;18.04;74.78;95561.63;5068456;28;20442;-56
2023/09/11 03:26:14;;;;;;;0.60;0.50;;;;;;;18.02;74.37;95555.78;5074964;28;20468;-56
2023/09/11 03:28:46;;;;;;;0.40;0.30;;;;;;;18.09;74.47;95560.72;5074569;28;20890;-56
2023/09/11 03:31:15;;;;;;;0.40;0.33;;;;;;;17.73;76.56;95550.91;5074840;28;20505;-56
2023/09/11 03:33:45;;;;;;;0.50;0.50;;;;;;;17.99;75.14;95556.41;5074002;28;20438;-56
2023/09/11 03:36:17;;;;;;;0.50;0.37;;;;;;;18.08;74.42;95559.13;5074530;28;20487;-55
2023/09/11 03:38:45;;;;;;;0.40;0.20;;;;;;;18.16;73.59;95563.75;5073967;28;20503;-55
2023/09/11 03:41:15;;;;;;;0.40;0.30;;;;;;;18.07;75.28;95563.69;5074858;28;20469;-56
2023/09/11 03:43:44;;;;;;;0.40;0.20;;;;;;;18.15;73.61;95556.78;5075066;28;20447;-55
2023/09/11 03:46:13;;;;;;;0.40;0.30;;;;;;;18.18;73.79;95573.06;5074157;28;20445;-55
2023/09/11 03:48:42;;;;;;;0.50;0.30;;;;;;;18.16;74.32;95566.41;5074651;28;20440;-56
2023/09/11 03:51:10;;;;;;;0.50;0.40;;;;;;;17.96;74.24;95557.00;5073401;28;20469;-55
2023/09/11 03:53:42;;;;;;;0.40;0.30;;;;;;;18.03;75.28;95564.63;5074713;28;20796;-56
2023/09/11 03:56:12;;;;;;;0.80;0.40;;;;;;;17.87;75.32;95571.50;5074196;28;20444;-55
2023/09/11 03:58:44;;;;;;;1.13;1.13;;;;;;;18.00;74.01;95563.34;5073364;28;20476;-55
2023/09/11 04:01:12;;;;;;;0.50;0.30;;;;;;;17.73;76.05;95574.28;5070931;28;20457;-54
2023/09/11 04:03:42;;;;;;;0.70;0.70;;;;;;;17.38;74.66;95578.59;5065222;28;20437;-55
2023/09/11 04:06:11;;;;;;;0.60;0.50;;;;;;;17.40;75.04;95575.63;5073233;28;20733;-55
2023/09/11 04:08:39;;;;;;;0.63;0.50;;;;;;;17.29;75.87;95574.28;5074053;28;20437;-55
2023/09/11 04:11:08;;;;;;;0.50;0.40;;;;;;;17.50;78.34;95586.88;5074147;28;20502;-54
2023/09/11 04:13:36;;;;;;;1.50;0.57;;;;;;;17.42;75.28;95562.69;5073754;28;20445;-55
2023/09/11 04:16:06;;;;;;;0.50;0.40;;;;;;;18.02;74.36;95582.59;5072865;28;20531;-55
2023/09/11 04:18:34;;;;;;;0.83;0.50;;;;;;;17.95;75.04;95581.47;5073980;28;20538;-55
2023/09/11 04:21:03;;;;;;;0.47;0.30;;;;;;;18.11;74.50;95580.75;5047460;28;20524;-55
2023/09/11 04:23:32;;;;;;;0.50;0.30;;;;;;;17.77;71.79;95505.53;5073063;28;20484;-55
2023/09/11 04:26:00;;;;;;;4.73;0.50;;;;;;;18.08;71.07;95564.50;5074113;28;20483;-55
2023/09/11 04:28:29;;;;;;;0.50;0.37;;;;;;;17.71;72.28;95585.28;5073458;28;20479;-55
2023/09/11 04:30:57;;;;;;;0.40;0.20;;;;;;;18.05;71.96;95584.69;5074268;28;20460;-55
2023/09/11 04:33:28;;;;;;;0.50;0.30;;;;;;;17.89;71.70;95582.69;5072134;28;20449;-55
2023/09/11 04:35:59;;;;;;;0.60;0.40;;;;;;;17.87;73.05;95582.22;5073406;28;20959;-55
2023/09/11 04:38:28;;;;;;;0.70;0.70;;;;;;;18.09;70.64;95582.19;5072906;28;21096;-55
2023/09/11 04:40:57;;;;;;;0.60;0.40;;;;;;;17.73;68.74;95494.63;5071634;28;20433;-56
2023/09/11 04:43:25;;;;;;;0.53;0.50;;;;;;;18.13;68.88;95577.75;5071233;28;20469;-56
2023/09/11 04:45:54;;;;;;;0.40;0.30;;;;;;;18.11;69.31;95575.41;5071310;28;20444;-56
2023/09/11 04:48:22;;;;;;;0.57;0.30;;;;;;;18.24;68.82;95581.75;5071105;28;20430;-56
2023/09/11 04:50:52;;;;;;;0.50;0.30;;;;;;;18.30;68.47;95577.81;5071483;28;20505;-56
2023/09/11 04:53:21;;;;;;;0.97;0.50;;;;;;;18.04;69.67;95580.41;5070567;28;20441;-56
2023/09/11 04:55:49;;;;;;;0.60;0.40;;;;;;;18.16;69.45;95579.84;5073467;28;20964;-56
2023/09/11 04:58:17;;;;;;;0.50;0.30;;;;;;;18.37;68.71;95573.56;5072984;28;20473;-56
2023/09/11 05:00:46;;;;;;;0.50;0.37;;;;;;;18.44;68.54;95577.72;5073127;28;20459;-56
2023/09/11 05:03:17;;;;;;;0.70;0.43;;;;;;;18.15;69.66;95556.78;5048519;28;20437;-56
2023/09/11 05:05:45;;;;;;;0.50;0.30;;;;;;;18.55;68.05;95574.44;5072822;28;20433;-56
2023/09/11 05:08:15;;;;;;;0.50;0.30;;;;;;;18.47;68.92;95567.16;5073472;28;20440;-57
2023/09/11 05:10:44;;;;;;;0.40;0.20;;;;;;;18.46;67.77;95543.28;5073436;28;20440;-56
2023/09/11 05:13:13;;;;;;;0.70;0.60;;;;;;;18.42;67.06;95500.16;5073143;28;20441;-57
2023/09/11 05:15:41;;;;;;;0.70;0.40;;;;;;;18.78;66.88;95562.47;5072123;28;20453;-57
2023/09/11 05:18:10;;;;;;;0.60;0.43;;;;;;;18.85;66.67;95573.53;5072443;28;20465;-57
2023/09/11 05:20:39;;;;;;;0.60;0.30;;;;;;;18.99;66.44;95551.91;5068592;28;20490;-57
2023/09/11 05:23:08;;;;;;;0.60;0.50;;;;;;;18.75;66.75;95563.09;5072833;28;20442;-58
2023/09/11 05:25:37;;;;;;;1.93;0.43;;;;;;;18.74;67.15;95564.22;5072197;28;20440;-58
2023/09/11 05:28:06;;;;;;;0.57;0.40;;;;;;;18.22;66.95;95463.19;5072920;28;20465;-58
2023/09/11 05:30:34;;;;;;;0.60;0.40;;;;;;;19.05;65.81;95569.44;5072794;28;20441;-58
2023/09/11 05:33:03;;;;;;;0.70;0.50;;;;;;;19.00;66.71;95559.63;5073065;28;20796;-58
2023/09/11 05:35:32;;;;;;;1.03;0.40;;;;;;;19.11;65.74;95537.81;5073161;28;20437;-58
2023/09/11 05:38:00;;;;;;;0.40;0.30;;;;;;;19.60;65.62;95554.25;5072795;28;20464;-56
2023/09/11 05:40:29;;;;;;;0.60;0.40;;;;;;;19.80;63.69;95550.06;5072412;28;20457;-57
2023/09/11 05:42:59;;;;;;;0.60;0.60;;;;;;;19.87;65.41;95550.34;5072233;28;20445;-56
2023/09/11 05:45:27;;;;;;;0.50;0.33;;;;;;;19.69;64.30;95553.41;5072015;28;20437;-56
2023/09/11 05:47:55;;;;;;;0.40;0.30;;;;;;;20.15;65.19;95554.22;5072341;28;20499;-56
2023/09/11 05:50:24;;;;;;;0.50;0.30;;;;;;;20.53;60.82;95548.03;5072103;28;20479;-56
2023/09/11 05:52:55;;;;;;;0.40;0.30;;;;;;;21.04;60.74;95552.25;5071958;28;20438;-56
2023/09/11 05:55:24;;;;;;;0.57;0.37;;;;;;;21.25;58.29;95548.44;5072330;28;20441;-56
2023/09/11 05:57:52;;;;;;;0.50;0.37;;;;;;;22.01;58.00;95550.72;5071526;28;20434;-57
2023/09/11 06:00:24;;;;;;;0.87;0.50;;;;;;;22.53;61.40;95554.34;5072378;28;20467;-55
2023/09/11 06:02:52;;;;;;;1.33;0.93;;;;;;;22.80;57.17;95546.66;5071604;28;20456;-55
2023/09/11 06:05:21;;;;;;;0.40;0.30;;;;;;;22.81;56.03;95549.03;5071884;28;20476;-55
2023/09/11 06:07:49;;;;;;;0.50;0.30;;;;;;;23.49;56.28;95549.06;5072182;28;20433;-55
2023/09/11 06:10:17;;;;;;;0.50;0.40;;;;;;;23.42;53.94;95552.38;5071817;28;20434;-55
2023/09/11 06:12:46;;;;;;;0.50;0.30;;;;;;;23.10;53.50;95547.94;5071329;28;20434;-55
2023/09/11 06:15:14;;;;;;;0.63;0.63;;;;;;;23.24;54.51;95548.38;5072457;28;20441;-55
2023/09/11 06:17:44;;;;;;;0.87;0.30;;;;;;;23.81;51.92;95539.88;5071433;28;20434;-55
2023/09/11 06:20:15;;;;;;;0.97;0.97;;;;;;;23.48;50.71;95545.56;5071589;28;20484;-55
2023/09/11 06:22:47;;;;;;;3.63;0.30;;;;;;;24.11;50.80;95551.91;5071324;28;20987;-56
2023/09/11 06:25:15;;;;;;;0.40;0.30;;;;;;;24.69;50.29;95546.72;5069229;28;20820;-56
2023/09/11 06:27:43;;;;;;;0.50;0.40;;;;;;;24.85;48.13;95550.19;5069756;28;20469;-55
2023/09/11 06:30:13;;;;;;;0.53;0.40;;;;;;;24.95;47.32;95553.13;5069505;28;20494;-56
2023/09/11 06:32:41;;;;;;;0.50;0.30;;;;;;;24.87;47.09;95551.41;5069413;28;20445;-55
2023/09/11 06:35:11;;;;;;;0.80;0.60;;;;;;;25.03;47.15;95549.44;5069621;28;20460;-55
2023/09/11 06:37:40;;;;;;;3.33;0.50;;;;;;;25.01;46.55;95543.59;5069504;28;20447;-54
2023/09/11 06:40:09;;;;;;;0.50;0.30;;;;;;;25.39;46.02;95542.03;5070903;28;21098;-54
2023/09/11 06:42:38;;;;;;;5.00;1.13;;;;;;;25.80;44.54;95542.09;5071702;28;20448;-54
2023/09/11 06:45:07;;;;;;;0.50;0.33;;;;;;;25.69;44.15;95545.75;5071464;28;20469;-55
2023/09/11 06:47:36;;;;;;;0.50;0.43;;;;;;;26.43;43.75;95536.97;5071678;28;20437;-55
2023/09/11 06:50:04;;;;;;;6.73;0.87;;;;;;;26.26;41.99;95491.25;5070764;28;20472;-55
2023/09/11 06:52:38;;;;;;;0.40;0.30;;;;;;;26.78;43.16;95531.31;5071458;28;20457;-54
2023/09/11 06:55:08;;;;;;;0.50;0.30;;;;;;;26.95;41.99;95527.25;5071007;28;20512;-54
2023/09/11 06:57:41;;;;;;;1.60;1.23;;;;;;;26.99;42.19;95522.66;5071437;28;20461;-56
2023/09/11 07:00:12;;;;;;;0.40;0.30;;;;;;;27.17;41.66;95529.13;5070832;28;20487;-54
2023/09/11 07:02:47;;;;;;;0.40;0.30;;;;;;;27.39;41.51;95524.75;5071009;28;20437;-55
2023/09/11 07:05:16;;;;;;;0.53;0.53;;;;;;;27.12;41.60;95531.38;5071195;28;20453;-55
2023/09/11 07:07:46;;;;;;;0.60;0.60;;;;;;;27.14;40.26;95523.63;5070729;28;20437;-53
2023/09/11 07:10:17;;;;;;;0.87;0.83;;;;;;;27.21;40.41;95472.00;5071082;28;20949;-53
2023/09/11 07:13:05;;;;;;;0.93;0.93;;;;;;;27.12;39.86;95528.66;5070920;28;20453;-53
2023/09/11 07:15:33;;;;;;;0.40;0.30;;;;;;;27.43;39.40;95520.91;5071217;28;20519;-52
2023/09/11 07:18:02;;;;;;;0.40;0.30;;;;;;;27.61;39.39;95527.34;5071587;28;20608;-52
2023/09/11 07:20:30;;;;;;;6.83;1.77;;;;;;;27.95;38.77;95530.00;5069965;28;20472;-52
2023/09/11 07:23:00;;;;;;;0.40;0.30;;;;;;;28.54;37.91;95532.47;5071115;28;20441;-52
2023/09/11 07:25:28;;;;;;;0.40;0.30;;;;;;;28.83;36.78;95522.59;5070179;28;20911;-50
2023/09/11 07:27:57;;;;;;;0.93;0.93;;;;;;;28.95;37.25;95520.31;5071203;28;20938;-51
2023/09/11 07:30:26;;;;;;;0.40;0.30;;;;;;;28.62;37.36;95517.78;5070215;28;20804;-51
2023/09/11 07:32:54;;;;;;;0.80;0.80;;;;;;;28.50;37.07;95522.72;5071523;28;20440;-52
2023/09/11 07:35:22;;;;;;;0.53;0.50;;;;;;;28.91;35.83;95524.97;5070773;28;20429;-52
2023/09/11 07:37:51;;;;;;;0.40;0.33;;;;;;;29.04;35.01;95487.22;5071197;28;20441;-52
2023/09/11 07:40:21;;;;;;;2.63;0.70;;;;;;;29.41;34.95;95517.03;5070848;28;20526;-52
2023/09/11 07:42:49;;;;;;;0.50;0.40;;;;;;;29.42;33.19;95516.66;5071166;28;20464;-52
2023/09/11 07:45:17;;;;;;;0.50;0.40;;;;;;;30.03;35.37;95507.47;5045096;28;20443;-52
2023/09/11 07:47:46;;;;;;;0.50;0.50;;;;;;;30.31;33.44;95511.41;5070575;28;20951;-51
2023/09/11 07:50:14;;;;;;;0.50;0.50;;;;;;;30.12;32.55;95499.66;5070379;28;20480;-51
2023/09/11 07:52:43;;;;;;;1.17;1.07;;;;;;;28.53;34.20;95502.88;5070045;28;20869;-51
2023/09/11 07:55:12;;;;;;;0.73;0.60;;;;;;;29.46;34.12;95494.81;5070447;28;20922;-51
2023/09/11 07:57:41;;;;;;;0.83;0.60;;;;;;;29.81;33.92;95464.88;5069838;28;20441;-51
2023/09/11 08:00:11;;;;;;;1.57;1.53;;;;;;;29.72;34.36;95496.47;5070671;28;20483;-52
2023/09/11 08:02:39;;;;;;;7.50;1.87;;;;;;;30.37;33.44;95487.97;5070965;28;20495;-52
2023/09/11 08:05:08;;;;;;;1.57;1.47;;;;;;;29.56;31.99;95499.53;5070484;28;20477;-53
2023/09/11 08:07:37;;;;;;;1.97;1.43;;;;;;;28.58;33.16;95437.84;5072056;28;20540;-52
2023/09/11 08:10:06;;;;;;;0.50;0.40;;;;;;;29.95;34.30;95489.50;5074262;28;20478;-52
2023/09/11 08:12:35;;;;;;;0.50;0.50;;;;;;;30.38;31.83;95478.59;5073769;28;20448;-52
2023/09/11 08:15:09;;;;;;;0.40;0.30;;;;;;;29.42;32.21;95483.88;5074190;28;20479;-52
2023/09/11 08:17:37;;;;;;;0.40;0.30;;;;;;;29.33;32.90;95471.75;5074273;28;20444;-52
2023/09/11 08:20:07;;;;;;;1.57;0.40;;;;;;;29.28;33.70;95478.38;5073396;28;20916;-52
2023/09/11 08:22:37;;;;;;;0.30;0.30;;;;;;;29.11;32.64;95412.78;5067534;28;20458;-52
2023/09/11 08:25:05;;;;;;;0.60;0.43;;;;;;;29.56;32.16;95445.69;5067117;28;20533;-52
2023/09/11 08:27:36;;;;;;;0.40;0.30;;;;;;;30.53;32.05;95472.72;5074359;28;20531;-52
2023/09/11 08:30:07;;;;;;;0.50;0.30;;;;;;;30.85;31.45;95469.91;5074026;28;20467;-53
2023/09/11 08:32:37;;;;;;;0.73;0.73;;;;;;;31.35;31.36;95463.09;5073236;28;20441;-52
2023/09/11 08:35:06;;;;;;;0.77;0.70;;;;;;;31.67;30.37;95456.69;5060030;28;20445;-52
2023/09/11 08:37:42;;;;;;;0.40;0.30;;;;;;;31.01;29.33;95445.66;5073579;28;20495;-53
2023/09/11 08:40:10;;;;;;;0.50;0.43;;;;;;;31.19;31.14;95451.06;5073312;28;20542;-51
2023/09/11 08:42:39;;;;;;;0.70;0.70;;;;;;;30.94;30.07;95447.63;5073772;28;20517;-51
2023/09/11 08:45:09;;;;;;;0.60;0.40;;;;;;;31.72;29.47;95431.59;5073112;28;20432;-52
2023/09/11 08:47:40;;;;;;;0.47;0.30;;;;;;;31.40;30.15;95439.97;5073071;28;20440;-51
2023/09/11 08:50:10;;;;;;;1.00;0.40;;;;;;;29.65;30.71;95444.53;5073283;28;20483;-51
2023/09/11 08:52:40;;;;;;;0.40;0.30;;;;;;;30.06;29.85;95421.94;5073250;28;20894;-51
2023/09/11 08:55:10;;;;;;;0.63;0.60;;;;;;;31.03;29.62;95429.59;5073835;28;20436;-51
2023/09/11 08:57:44;;;;;;;0.30;0.30;;;;;;;31.70;30.29;95433.97;5073507;28;20801;-51
2023/09/11 09:00:15;;;;;;;1.13;1.03;;;;;;;31.34;29.68;95405.97;5073351;28;21050;-51
2023/09/11 09:02:44;;;;;;;0.30;0.30;;;;;;;32.34;28.10;95382.91;5073212;28;20441;-52
2023/09/11 09:05:14;;;;;;;0.30;0.30;;;;;;;32.56;28.08;95422.69;5073401;28;20444;-52
2023/09/11 09:07:46;;;;;;;0.40;0.30;;;;;;;32.88;29.13;95421.59;5073262;28;20955;-52
2023/09/11 09:10:16;;;;;;;0.40;0.30;;;;;;;33.05;27.67;95417.88;5073790;28;20441;-52
2023/09/11 09:12:45;;;;;;;0.30;0.30;;;;;;;33.40;27.48;95420.16;5072645;28;20490;-52
2023/09/11 09:15:17;;;;;;;0.50;0.30;;;;;;;33.42;27.80;95409.53;5072658;28;20448;-51
2023/09/11 09:17:46;;;;;;;0.43;0.37;;;;;;;33.15;26.73;95408.72;5072730;28;20972;-52
2023/09/11 09:20:16;;;;;;;0.53;0.40;;;;;;;33.14;26.85;95404.44;5073228;28;20468;-49
2023/09/11 09:22:55;;;;;;;0.50;0.50;;;;;;;32.86;27.56;95415.72;5073186;28;20448;-50
2023/09/11 09:25:24;;;;;;;0.60;0.37;;;;;;;33.15;26.76;95397.72;5073056;28;20812;-50
2023/09/11 09:27:53;;;;;;;0.50;0.50;;;;;;;33.51;26.18;95392.53;5073048;28;20440;-50
2023/09/11 09:30:24;;;;;;;0.40;0.33;;;;;;;33.28;27.17;95390.50;5072995;28;20933;-50
2023/09/11 09:32:53;;;;;;;0.40;0.30;;;;;;;33.63;26.71;95395.50;5073112;28;20444;-50
2023/09/11 09:35:23;;;;;;;0.40;0.30;;;;;;;34.37;24.61;95382.53;5072493;28;20516;-50
2023/09/11 09:37:53;;;;;;;0.40;0.30;;;;;;;34.03;26.62;95381.94;5072655;28;20441;-49
2023/09/11 09:40:35;;;;;;;0.40;0.30;;;;;;;33.53;25.57;95374.44;5066998;28;20478;-49
2023/09/11 09:43:05;;;;;;;0.50;0.40;;;;;;;32.61;25.46;95319.94;5067846;28;20808;-49
2023/09/11 09:45:37;;;;;;;0.40;0.30;;;;;;;33.76;26.84;95329.72;5072464;28;20463;-50
2023/09/11 09:48:07;;;;;;;0.50;0.30;;;;;;;32.34;25.57;95366.47;5072141;28;20441;-50
2023/09/11 09:50:57;;;;;;;0.70;0.40;;;;;;;32.66;26.53;95354.38;5072201;28;21020;-50
2023/09/11 09:53:28;;;;;;;0.60;0.47;;;;;;;33.20;27.63;95350.56;5046824;28;20916;-50
2023/09/11 09:55:58;;;;;;;0.53;0.53;;;;;;;33.19;26.21;95330.56;5071526;28;20452;-50
2023/09/11 09:58:28;;;;;;;0.53;0.30;;;;;;;33.80;26.72;95353.22;5072054;28;20498;-50
2023/09/11 10:01:03;;;;;;;0.40;0.30;;;;;;;34.06;25.42;95356.34;5071833;28;20992;-50
2023/09/11 10:03:45;;;;;;;0.33;0.30;;;;;;;32.86;24.57;95215.28;5072272;28;20532;-50
2023/09/11 10:06:17;;;;;;;0.60;0.60;;;;;;;34.24;25.02;95346.59;5071871;28;20439;-50
2023/09/11 10:08:46;;;;;;;0.30;0.30;;;;;;;33.88;24.09;95336.63;5072124;28;20932;-50
2023/09/11 10:11:28;;;;;;;0.50;0.43;;;;;;;34.18;26.11;95342.00;5071866;28;20451;-50
2023/09/11 10:13:58;;;;;;;0.50;0.50;;;;;;;33.53;24.31;95330.44;5071646;28;20525;-50
2023/09/11 10:16:30;;;;;;;1.17;0.60;;;;;;;33.10;24.70;95346.00;5071214;28;20926;-50
2023/09/11 10:19:00;;;;;;;0.40;0.30;;;;;;;33.30;25.41;95337.88;5071468;28;20835;-50
2023/09/11 10:21:29;;;;;;;0.40;0.30;;;;;;;34.27;25.71;95332.00;5071421;28;20919;-50
2023/09/11 10:23:58;;;;;;;0.40;0.30;;;;;;;34.87;25.75;95328.06;5071606;28;20444;-50
2023/09/11 10:26:37;;;;;;;0.60;0.40;;;;;;;34.51;22.83;95315.44;5072236;28;20462;-50
2023/09/11 10:29:09;;;;;;;2.00;0.40;;;;;;;33.64;25.16;95314.59;5071332;28;20202;-50
2023/09/11 10:31:44;;;;;;;0.40;0.40;;;;;;;33.84;23.96;95314.66;5071141;28;20198;-50
2023/09/11 10:34:12;;;;;;;0.40;0.40;;;;;;;34.21;23.53;95313.63;5071414;28;20511;-50
2023/09/11 10:36:46;;;;;;;0.40;0.30;;;;;;;33.49;23.62;95302.25;5071161;28;20440;-50
2023/09/11 10:39:16;;;;;;;0.53;0.50;;;;;;;33.64;23.77;95309.09;5071573;28;20449;-50
2023/09/11 10:41:45;;;;;;;0.40;0.30;;;;;;;34.54;24.34;95262.25;5071370;28;20480;-50
2023/09/11 10:44:15;;;;;;;0.33;0.30;;;;;;;35.05;23.67;95270.66;5071546;28;20445;-51
2023/09/11 10:46:49;;;;;;;0.70;0.30;;;;;;;34.24;23.38;95275.06;5071056;28;20663;-51
2023/09/11 10:49:20;;;;;;;0.30;0.30;;;;;;;33.68;23.38;95298.03;5070496;28;20281;-50
2023/09/11 10:51:50;;;;;;;0.40;0.30;;;;;;;33.83;23.64;95285.59;5071372;28;20199;-51
2023/09/11 10:54:22;;;;;;;0.30;0.30;;;;;;;34.19;23.68;95283.00;5070786;28;20738;-51
2023/09/11 10:56:51;;;;;;;0.87;0.30;;;;;;;34.41;22.94;95220.84;5071526;28;20440;-50
2023/09/11 10:59:23;;;;;;;0.93;0.50;;;;;;;35.57;23.13;95262.34;5071048;28;20201;-50
2023/09/11 11:01:53;;;;;;;0.40;0.33;;;;;;;36.01;22.72;95284.91;5070915;28;20214;-51
2023/09/11 11:04:24;;;;;;;2.60;0.40;;;;;;;36.77;23.72;95277.69;5069941;28;20226;-50
2023/09/11 11:06:55;;;;;;;0.40;0.40;;;;;;;36.69;22.14;95285.41;5071142;28;20573;-51
2023/09/11 11:09:25;;;;;;;0.30;0.20;;;;;;;36.31;21.44;95277.00;5071158;28;20201;-50
2023/09/11 11:11:58;;;;;;;0.30;0.30;;;;;;;35.48;21.85;95237.34;5071431;28;20660;-51
2023/09/11 11:14:27;;;;;;;0.40;0.30;;;;;;;35.79;21.57;95270.88;5071040;28;20226;-50
2023/09/11 11:17:04;;;;;;;0.30;0.20;;;;;;;35.76;22.45;95285.53;5070996;28;20190;-51
2023/09/11 11:19:34;;;;;;;0.60;0.30;;;;;;;35.76;22.29;95285.53;5070905;28;20574;-51
2023/09/11 11:22:06;;;;;;;0.43;0.30;;;;;;;35.90;23.06;95284.41;5071334;28;20298;-52
2023/09/11 11:24:49;;;;;;;0.37;0.20;;;;;;;35.01;22.91;95264.44;5071215;28;20252;-52
2023/09/11 11:27:18;;;;;;;0.40;0.30;;;;;;;36.20;21.83;95267.47;5070764;28;20607;-53
2023/09/11 11:29:47;;;;;;;0.50;0.30;;;;;;;35.05;20.95;95269.88;5058808;28;20589;-53
2023/09/11 11:32:18;;;;;;;0.30;0.30;;;;;;;35.25;21.48;95261.53;5070955;28;20663;-53
2023/09/11 11:34:50;;;;;;;0.40;0.30;;;;;;;35.35;20.95;95255.78;5070634;28;20732;-52
2023/09/11 11:37:21;;;;;;;0.80;0.30;;;;;;;35.50;21.79;95245.94;5071328;28;20194;-53
2023/09/11 11:39:50;;;;;;;0.40;0.37;;;;;;;36.09;20.40;95255.91;5071334;28;20201;-52
2023/09/11 11:42:18;;;;;;;0.40;0.30;;;;;;;35.32;21.47;95242.09;5072767;28;20207;-53
2023/09/11 11:44:48;;;;;;;0.40;0.33;;;;;;;35.28;20.74;95242.16;5074314;28;20267;-54
2023/09/11 11:47:20;;;;;;;0.70;0.30;;;;;;;34.29;19.91;95247.03;5074408;28;20202;-53